sensor_id;sensor_type;location;lat;lon;timestamp;temperature;humidity
22532;DHT22;11432;46.924;7.114;2023-11-21T00:01:35;7.60;1.00
22532;DHT22;11432;46.924;7.114;2023-11-21T00:04:01;7.60;62.30
22532;DHT22;11432;46.924;7.114;2023-11-21T00:06:27;7.60;99.90
22532;DHT22;11432;46.924;7.114;2023-11-21T00:08:53;7.60;99.90
22532;DHT22;11432;46.924;7.114;2023-11-21T00:11:18;7.50;99.90
22532;DHT22;11432;46.924;7.114;2023-11-21T00:13:44;7.60;70.50
22532;DHT22;11432;46.924;7.114;2023-11-21T00:16:10;7.60;1.00
22532;DHT22;11432;46.924;7.114;2023-11-21T00:18:36;7.70;1.00
22532;DHT22;11432;46.924;7.114;2023-11-21T00:21:02;7.60;1.00
22532;DHT22;11432;46.924;7.114;2023-11-21T00:23:29;7.60;99.90
22532;DHT22;11432;46.924;7.114;2023-11-21T00:25:54;7.60;99.90
22532;DHT22;11432;46.924;7.114;2023-11-21T00:28:20;7.60;35.30
22532;DHT22;11432;46.924;7.114;2023-11-21T00:30:45;7.60;1.00
22532;DHT22;11432;46.924;7.114;2023-11-21T00:33:11;7.70;99.90
22532;DHT22;11432;46.924;7.114;2023-11-21T00:35:36;7.70;70.10
22532;DHT22;11432;46.924;7.114;2023-11-21T00:38:02;7.70;1.00
22532;DHT22;11432;46.924;7.114;2023-11-21T00:40:28;7.80;1.00
22532;DHT22;11432;46.924;7.114;2023-11-21T00:42:54;7.80;1.00
22532;DHT22;11432;46.924;7.114;2023-11-21T00:45:21;7.90;1.00
22532;DHT22;11432;46.924;7.114;2023-11-21T00:47:47;7.90;1.00
22532;DHT22;11432;46.924;7.114;2023-11-21T00:50:12;8.00;1.00
22532;DHT22;11432;46.924;7.114;2023-11-21T00:52:38;8.20;99.90
22532;DHT22;11432;46.924;7.114;2023-11-21T00:55:07;8.30;99.90
22532;DHT22;11432;46.924;7.114;2023-11-21T00:57:34;8.30;99.90
22532;DHT22;11432;46.924;7.114;2023-11-21T01:00:00;8.40;1.00
22532;DHT22;11432;46.924;7.114;2023-11-21T01:02:25;8.30;1.00
22532;DHT22;11432;46.924;7.114;2023-11-21T01:04:51;8.20;1.00
22532;DHT22;11432;46.924;7.114;2023-11-21T01:07:16;8.10;1.00
22532;DHT22;11432;46.924;7.114;2023-11-21T01:09:46;8.00;1.00
22532;DHT22;11432;46.924;7.114;2023-11-21T01:12:11;8.00;1.00
22532;DHT22;11432;46.924;7.114;2023-11-21T01:14:37;8.00;1.00
22532;DHT22;11432;46.924;7.114;2023-11-21T01:17:02;8.00;1.00
22532;DHT22;11432;46.924;7.114;2023-11-21T01:19:30;7.90;1.00
22532;DHT22;11432;46.924;7.114;2023-11-21T01:21:55;8.00;1.00
22532;DHT22;11432;46.924;7.114;2023-11-21T01:24:23;8.20;1.00
22532;DHT22;11432;46.924;7.114;2023-11-21T01:26:48;8.30;1.00
22532;DHT22;11432;46.924;7.114;2023-11-21T01:29:14;8.30;1.00
22532;DHT22;11432;46.924;7.114;2023-11-21T01:31:40;8.30;1.00
22532;DHT22;11432;46.924;7.114;2023-11-21T01:34:07;8.30;1.00
22532;DHT22;11432;46.924;7.114;2023-11-21T01:36:33;8.40;1.00
22532;DHT22;11432;46.924;7.114;2023-11-21T01:38:59;8.40;1.00
22532;DHT22;11432;46.924;7.114;2023-11-21T01:41:28;8.50;1.00
22532;DHT22;11432;46.924;7.114;2023-11-21T01:43:54;8.40;1.00
22532;DHT22;11432;46.924;7.114;2023-11-21T01:46:20;8.50;1.00
22532;DHT22;11432;46.924;7.114;2023-11-21T01:48:48;8.50;1.00
22532;DHT22;11432;46.924;7.114;2023-11-21T01:51:14;8.50;1.00
22532;DHT22;11432;46.924;7.114;2023-11-21T01:53:40;8.50;1.00
22532;DHT22;11432;46.924;7.114;2023-11-21T01:56:07;8.50;1.00
22532;DHT22;11432;46.924;7.114;2023-11-21T01:58:34;8.50;1.00
22532;DHT22;11432;46.924;7.114;2023-11-21T02:00:59;8.50;99.90
22532;DHT22;11432;46.924;7.114;2023-11-21T02:03:25;8.50;99.90
22532;DHT22;11432;46.924;7.114;2023-11-21T02:05:52;8.40;1.00
22532;DHT22;11432;46.924;7.114;2023-11-21T02:08:19;8.30;21.10
22532;DHT22;11432;46.924;7.114;2023-11-21T02:10:45;8.30;99.90
22532;DHT22;11432;46.924;7.114;2023-11-21T02:13:11;8.20;99.90
22532;DHT22;11432;46.924;7.114;2023-11-21T02:15:37;8.10;99.90
22532;DHT22;11432;46.924;7.114;2023-11-21T02:18:04;8.10;99.90
22532;DHT22;11432;46.924;7.114;2023-11-21T02:20:31;8.00;1.00
22532;DHT22;11432;46.924;7.114;2023-11-21T02:23:00;7.90;1.00
22532;DHT22;11432;46.924;7.114;2023-11-21T02:25:32;7.90;1.00
22532;DHT22;11432;46.924;7.114;2023-11-21T02:28:00;7.80;1.00
22532;DHT22;11432;46.924;7.114;2023-11-21T02:30:26;7.80;1.00
22532;DHT22;11432;46.924;7.114;2023-11-21T02:32:53;7.80;1.00
22532;DHT22;11432;46.924;7.114;2023-11-21T02:35:20;7.80;1.00
22532;DHT22;11432;46.924;7.114;2023-11-21T02:37:47;7.80;1.00
22532;DHT22;11432;46.924;7.114;2023-11-21T02:40:12;7.90;1.00
22532;DHT22;11432;46.924;7.114;2023-11-21T02:42:39;7.90;1.00
22532;DHT22;11432;46.924;7.114;2023-11-21T02:45:07;7.90;1.00
22532;DHT22;11432;46.924;7.114;2023-11-21T02:47:33;8.00;1.00
22532;DHT22;11432;46.924;7.114;2023-11-21T02:49:59;8.00;1.00
22532;DHT22;11432;46.924;7.114;2023-11-21T02:52:25;7.90;1.00
22532;DHT22;11432;46.924;7.114;2023-11-21T02:54:50;7.90;1.00
22532;DHT22;11432;46.924;7.114;2023-11-21T02:57:16;7.90;1.00
22532;DHT22;11432;46.924;7.114;2023-11-21T02:59:42;7.80;1.00
22532;DHT22;11432;46.924;7.114;2023-11-21T03:02:08;7.80;1.00
22532;DHT22;11432;46.924;7.114;2023-11-21T03:04:34;7.70;1.00
22532;DHT22;11432;46.924;7.114;2023-11-21T03:07:00;7.70;4.20
22532;DHT22;11432;46.924;7.114;2023-11-21T03:09:26;7.60;10.00
22532;DHT22;11432;46.924;7.114;2023-11-21T03:11:52;7.60;31.10
22532;DHT22;11432;46.924;7.114;2023-11-21T03:14:18;7.60;11.40
22532;DHT22;11432;46.924;7.114;2023-11-21T03:16:44;7.60;37.40
22532;DHT22;11432;46.924;7.114;2023-11-21T03:19:11;7.60;99.90
22532;DHT22;11432;46.924;7.114;2023-11-21T03:21:36;7.60;99.90
22532;DHT22;11432;46.924;7.114;2023-11-21T03:24:02;7.60;99.90
22532;DHT22;11432;46.924;7.114;2023-11-21T03:26:28;7.60;99.90
22532;DHT22;11432;46.924;7.114;2023-11-21T03:28:55;7.60;99.90
22532;DHT22;11432;46.924;7.114;2023-11-21T03:31:21;7.60;99.90
22532;DHT22;11432;46.924;7.114;2023-11-21T03:33:46;7.60;99.90
22532;DHT22;11432;46.924;7.114;2023-11-21T03:36:13;7.60;99.90
22532;DHT22;11432;46.924;7.114;2023-11-21T03:38:40;7.50;99.90
22532;DHT22;11432;46.924;7.114;2023-11-21T03:41:06;7.50;99.90
22532;DHT22;11432;46.924;7.114;2023-11-21T03:43:31;7.50;99.90
22532;DHT22;11432;46.924;7.114;2023-11-21T03:45:57;7.50;99.90
22532;DHT22;11432;46.924;7.114;2023-11-21T03:48:23;7.50;99.90
22532;DHT22;11432;46.924;7.114;2023-11-21T03:50:48;7.50;99.90
22532;DHT22;11432;46.924;7.114;2023-11-21T03:53:14;7.50;99.90
22532;DHT22;11432;46.924;7.114;2023-11-21T03:55:39;7.50;99.90
22532;DHT22;11432;46.924;7.114;2023-11-21T03:58:05;7.50;99.90
22532;DHT22;11432;46.924;7.114;2023-11-21T04:00:31;7.50;99.90
22532;DHT22;11432;46.924;7.114;2023-11-21T04:02:56;7.60;99.90
22532;DHT22;11432;46.924;7.114;2023-11-21T04:05:23;7.60;99.90
22532;DHT22;11432;46.924;7.114;2023-11-21T04:07:52;7.60;99.90
22532;DHT22;11432;46.924;7.114;2023-11-21T04:10:18;7.60;99.90
22532;DHT22;11432;46.924;7.114;2023-11-21T04:12:43;7.60;99.90
22532;DHT22;11432;46.924;7.114;2023-11-21T04:15:11;7.60;99.90
22532;DHT22;11432;46.924;7.114;2023-11-21T04:17:39;7.60;99.90
22532;DHT22;11432;46.924;7.114;2023-11-21T04:20:05;7.60;99.90
22532;DHT22;11432;46.924;7.114;2023-11-21T04:22:36;7.70;99.90
22532;DHT22;11432;46.924;7.114;2023-11-21T04:25:02;7.70;99.90
22532;DHT22;11432;46.924;7.114;2023-11-21T04:27:28;7.60;99.90
22532;DHT22;11432;46.924;7.114;2023-11-21T04:29:53;7.60;99.90
22532;DHT22;11432;46.924;7.114;2023-11-21T04:32:19;7.50;99.90
22532;DHT22;11432;46.924;7.114;2023-11-21T04:34:45;7.50;99.90
22532;DHT22;11432;46.924;7.114;2023-11-21T04:37:10;7.50;99.90
22532;DHT22;11432;46.924;7.114;2023-11-21T04:39:36;7.50;99.90
22532;DHT22;11432;46.924;7.114;2023-11-21T04:42:01;7.50;99.90
22532;DHT22;11432;46.924;7.114;2023-11-21T04:44:27;7.50;99.90
22532;DHT22;11432;46.924;7.114;2023-11-21T04:46:53;7.50;99.90
22532;DHT22;11432;46.924;7.114;2023-11-21T04:49:18;7.50;99.90
22532;DHT22;11432;46.924;7.114;2023-11-21T04:51:44;7.50;99.90
22532;DHT22;11432;46.924;7.114;2023-11-21T04:54:10;7.60;99.90
22532;DHT22;11432;46.924;7.114;2023-11-21T04:56:35;7.60;99.90
22532;DHT22;11432;46.924;7.114;2023-11-21T04:59:01;7.60;99.90
22532;DHT22;11432;46.924;7.114;2023-11-21T05:01:26;7.60;99.90
22532;DHT22;11432;46.924;7.114;2023-11-21T05:03:52;7.60;99.90
22532;DHT22;11432;46.924;7.114;2023-11-21T05:06:18;7.60;97.20
22532;DHT22;11432;46.924;7.114;2023-11-21T05:08:44;7.60;90.10
22532;DHT22;11432;46.924;7.114;2023-11-21T05:11:09;7.60;96.70
22532;DHT22;11432;46.924;7.114;2023-11-21T05:13:36;7.50;99.90
22532;DHT22;11432;46.924;7.114;2023-11-21T05:16:03;7.50;99.90
22532;DHT22;11432;46.924;7.114;2023-11-21T05:18:29;7.40;99.90
22532;DHT22;11432;46.924;7.114;2023-11-21T05:20:55;7.40;99.90
22532;DHT22;11432;46.924;7.114;2023-11-21T05:23:21;7.40;99.90
22532;DHT22;11432;46.924;7.114;2023-11-21T05:25:47;7.40;99.90
22532;DHT22;11432;46.924;7.114;2023-11-21T05:28:13;7.40;99.90
22532;DHT22;11432;46.924;7.114;2023-11-21T05:30:38;7.40;99.90
22532;DHT22;11432;46.924;7.114;2023-11-21T05:33:05;7.40;99.90
22532;DHT22;11432;46.924;7.114;2023-11-21T05:35:30;7.40;99.90
22532;DHT22;11432;46.924;7.114;2023-11-21T05:37:56;7.40;99.90
22532;DHT22;11432;46.924;7.114;2023-11-21T05:40:22;7.30;99.90
22532;DHT22;11432;46.924;7.114;2023-11-21T05:42:48;7.30;99.90
22532;DHT22;11432;46.924;7.114;2023-11-21T05:45:14;7.30;99.90
22532;DHT22;11432;46.924;7.114;2023-11-21T05:47:42;7.30;99.90
22532;DHT22;11432;46.924;7.114;2023-11-21T05:50:09;7.20;99.90
22532;DHT22;11432;46.924;7.114;2023-11-21T05:52:36;7.20;99.90
22532;DHT22;11432;46.924;7.114;2023-11-21T05:55:03;7.20;99.90
22532;DHT22;11432;46.924;7.114;2023-11-21T05:57:30;7.30;99.90
22532;DHT22;11432;46.924;7.114;2023-11-21T05:59:56;7.40;99.90
22532;DHT22;11432;46.924;7.114;2023-11-21T06:02:21;7.40;99.90
22532;DHT22;11432;46.924;7.114;2023-11-21T06:04:47;7.40;99.90
22532;DHT22;11432;46.924;7.114;2023-11-21T06:07:12;7.40;99.90
22532;DHT22;11432;46.924;7.114;2023-11-21T06:09:38;7.50;99.90
22532;DHT22;11432;46.924;7.114;2023-11-21T06:12:04;7.40;99.90
22532;DHT22;11432;46.924;7.114;2023-11-21T06:14:29;7.50;99.90
22532;DHT22;11432;46.924;7.114;2023-11-21T06:16:55;7.50;99.90
22532;DHT22;11432;46.924;7.114;2023-11-21T06:19:21;7.50;99.90
22532;DHT22;11432;46.924;7.114;2023-11-21T06:21:47;7.50;99.90
22532;DHT22;11432;46.924;7.114;2023-11-21T06:24:13;7.50;99.90
22532;DHT22;11432;46.924;7.114;2023-11-21T06:26:40;7.50;99.90
22532;DHT22;11432;46.924;7.114;2023-11-21T06:29:06;7.40;99.90
22532;DHT22;11432;46.924;7.114;2023-11-21T06:31:32;7.50;99.90
22532;DHT22;11432;46.924;7.114;2023-11-21T06:33:58;7.40;99.90
22532;DHT22;11432;46.924;7.114;2023-11-21T06:36:25;7.40;99.90
22532;DHT22;11432;46.924;7.114;2023-11-21T06:38:52;7.40;99.90
22532;DHT22;11432;46.924;7.114;2023-11-21T06:41:17;7.40;99.90
22532;DHT22;11432;46.924;7.114;2023-11-21T06:43:43;7.40;99.90
22532;DHT22;11432;46.924;7.114;2023-11-21T06:46:12;7.40;99.90
22532;DHT22;11432;46.924;7.114;2023-11-21T06:48:42;7.40;99.90
22532;DHT22;11432;46.924;7.114;2023-11-21T06:51:07;7.40;99.90
22532;DHT22;11432;46.924;7.114;2023-11-21T06:53:33;7.50;99.90
22532;DHT22;11432;46.924;7.114;2023-11-21T06:55:59;7.50;99.90
22532;DHT22;11432;46.924;7.114;2023-11-21T06:58:25;7.50;99.90
22532;DHT22;11432;46.924;7.114;2023-11-21T07:00:50;7.50;99.90
22532;DHT22;11432;46.924;7.114;2023-11-21T07:03:17;7.50;99.90
22532;DHT22;11432;46.924;7.114;2023-11-21T07:05:44;7.50;99.90
22532;DHT22;11432;46.924;7.114;2023-11-21T07:08:10;7.50;99.90
22532;DHT22;11432;46.924;7.114;2023-11-21T07:10:36;7.50;99.90
22532;DHT22;11432;46.924;7.114;2023-11-21T07:13:02;7.50;99.90
22532;DHT22;11432;46.924;7.114;2023-11-21T07:15:28;7.50;99.90
22532;DHT22;11432;46.924;7.114;2023-11-21T07:17:53;7.60;99.90
22532;DHT22;11432;46.924;7.114;2023-11-21T07:20:19;7.60;99.90
22532;DHT22;11432;46.924;7.114;2023-11-21T07:22:45;7.60;99.90
22532;DHT22;11432;46.924;7.114;2023-11-21T07:25:11;7.90;99.90
22532;DHT22;11432;46.924;7.114;2023-11-21T07:27:37;7.90;99.90
22532;DHT22;11432;46.924;7.114;2023-11-21T07:30:03;7.90;99.90
22532;DHT22;11432;46.924;7.114;2023-11-21T07:32:31;7.90;99.90
22532;DHT22;11432;46.924;7.114;2023-11-21T07:34:56;7.80;99.90
22532;DHT22;11432;46.924;7.114;2023-11-21T07:37:24;7.80;99.90
22532;DHT22;11432;46.924;7.114;2023-11-21T07:39:51;7.90;99.90
22532;DHT22;11432;46.924;7.114;2023-11-21T07:42:24;7.90;99.90
22532;DHT22;11432;46.924;7.114;2023-11-21T07:44:52;7.80;99.90
22532;DHT22;11432;46.924;7.114;2023-11-21T07:47:17;7.80;99.90
22532;DHT22;11432;46.924;7.114;2023-11-21T07:49:56;7.90;80.20
22532;DHT22;11432;46.924;7.114;2023-11-21T07:52:22;7.90;99.90
22532;DHT22;11432;46.924;7.114;2023-11-21T07:54:48;7.90;99.90
22532;DHT22;11432;46.924;7.114;2023-11-21T07:57:14;7.90;99.90
22532;DHT22;11432;46.924;7.114;2023-11-21T07:59:40;8.00;99.90
22532;DHT22;11432;46.924;7.114;2023-11-21T08:02:06;8.00;99.90
22532;DHT22;11432;46.924;7.114;2023-11-21T08:04:32;8.00;99.90
22532;DHT22;11432;46.924;7.114;2023-11-21T08:06:58;8.10;99.90
22532;DHT22;11432;46.924;7.114;2023-11-21T08:09:23;8.10;32.20
22532;DHT22;11432;46.924;7.114;2023-11-21T08:11:49;8.10;18.50
22532;DHT22;11432;46.924;7.114;2023-11-21T08:14:15;8.00;1.00
22532;DHT22;11432;46.924;7.114;2023-11-21T08:16:41;8.00;1.00
22532;DHT22;11432;46.924;7.114;2023-11-21T08:19:06;8.10;1.00
22532;DHT22;11432;46.924;7.114;2023-11-21T08:21:34;8.10;1.00
22532;DHT22;11432;46.924;7.114;2023-11-21T08:23:59;8.10;1.00
22532;DHT22;11432;46.924;7.114;2023-11-21T08:26:25;8.10;1.00
22532;DHT22;11432;46.924;7.114;2023-11-21T08:28:51;8.10;1.00
22532;DHT22;11432;46.924;7.114;2023-11-21T08:31:25;8.20;1.00
22532;DHT22;11432;46.924;7.114;2023-11-21T08:33:51;8.20;1.00
22532;DHT22;11432;46.924;7.114;2023-11-21T08:36:17;8.20;1.00
22532;DHT22;11432;46.924;7.114;2023-11-21T08:38:42;8.20;1.00
22532;DHT22;11432;46.924;7.114;2023-11-21T08:41:08;8.20;1.00
22532;DHT22;11432;46.924;7.114;2023-11-21T08:43:35;8.20;1.00
22532;DHT22;11432;46.924;7.114;2023-11-21T08:46:01;8.30;1.00
22532;DHT22;11432;46.924;7.114;2023-11-21T08:48:26;8.30;1.00
22532;DHT22;11432;46.924;7.114;2023-11-21T08:50:53;8.50;1.00
22532;DHT22;11432;46.924;7.114;2023-11-21T08:53:19;8.70;1.00
22532;DHT22;11432;46.924;7.114;2023-11-21T08:55:45;8.70;1.00
22532;DHT22;11432;46.924;7.114;2023-11-21T08:58:10;8.70;1.00
22532;DHT22;11432;46.924;7.114;2023-11-21T09:00:39;8.80;1.00
22532;DHT22;11432;46.924;7.114;2023-11-21T09:03:05;8.80;1.00
22532;DHT22;11432;46.924;7.114;2023-11-21T09:05:34;8.80;1.00
22532;DHT22;11432;46.924;7.114;2023-11-21T09:07:59;8.80;1.00
22532;DHT22;11432;46.924;7.114;2023-11-21T09:10:25;8.90;1.00
22532;DHT22;11432;46.924;7.114;2023-11-21T09:12:51;8.80;1.00
22532;DHT22;11432;46.924;7.114;2023-11-21T09:15:17;8.80;1.00
22532;DHT22;11432;46.924;7.114;2023-11-21T09:17:43;8.80;1.00
22532;DHT22;11432;46.924;7.114;2023-11-21T09:20:10;8.80;1.00
22532;DHT22;11432;46.924;7.114;2023-11-21T09:22:36;8.80;1.00
22532;DHT22;11432;46.924;7.114;2023-11-21T09:25:02;8.90;1.00
22532;DHT22;11432;46.924;7.114;2023-11-21T09:27:31;9.10;1.00
22532;DHT22;11432;46.924;7.114;2023-11-21T09:29:57;9.20;1.00
22532;DHT22;11432;46.924;7.114;2023-11-21T09:32:23;9.30;1.00
22532;DHT22;11432;46.924;7.114;2023-11-21T09:34:49;9.30;1.00
22532;DHT22;11432;46.924;7.114;2023-11-21T09:37:16;9.30;1.00
22532;DHT22;11432;46.924;7.114;2023-11-21T09:39:41;9.30;1.00
22532;DHT22;11432;46.924;7.114;2023-11-21T09:42:17;9.10;1.00
22532;DHT22;11432;46.924;7.114;2023-11-21T09:44:48;9.00;1.00
22532;DHT22;11432;46.924;7.114;2023-11-21T09:47:17;8.90;1.00
22532;DHT22;11432;46.924;7.114;2023-11-21T09:49:47;8.80;1.00
22532;DHT22;11432;46.924;7.114;2023-11-21T09:52:21;8.80;1.00
22532;DHT22;11432;46.924;7.114;2023-11-21T09:54:50;8.80;1.00
22532;DHT22;11432;46.924;7.114;2023-11-21T09:57:16;8.80;1.00
22532;DHT22;11432;46.924;7.114;2023-11-21T09:59:44;8.90;1.00
22532;DHT22;11432;46.924;7.114;2023-11-21T10:02:10;8.90;1.00
22532;DHT22;11432;46.924;7.114;2023-11-21T10:04:39;9.00;1.00
22532;DHT22;11432;46.924;7.114;2023-11-21T10:07:05;9.10;1.00
22532;DHT22;11432;46.924;7.114;2023-11-21T10:09:36;9.20;1.00
22532;DHT22;11432;46.924;7.114;2023-11-21T10:12:04;9.40;1.00
22532;DHT22;11432;46.924;7.114;2023-11-21T10:14:35;9.50;1.00
22532;DHT22;11432;46.924;7.114;2023-11-21T10:17:02;9.50;1.00
22532;DHT22;11432;46.924;7.114;2023-11-21T10:19:29;9.60;1.00
22532;DHT22;11432;46.924;7.114;2023-11-21T10:21:55;9.60;1.00
22532;DHT22;11432;46.924;7.114;2023-11-21T10:24:23;9.70;1.00
22532;DHT22;11432;46.924;7.114;2023-11-21T10:26:48;9.80;99.90
22532;DHT22;11432;46.924;7.114;2023-11-21T10:29:16;9.80;99.90
22532;DHT22;11432;46.924;7.114;2023-11-21T10:31:49;10.10;99.90
22532;DHT22;11432;46.924;7.114;2023-11-21T10:34:16;9.80;99.90
22532;DHT22;11432;46.924;7.114;2023-11-21T10:36:42;9.70;99.90
22532;DHT22;11432;46.924;7.114;2023-11-21T10:39:08;9.70;99.90
22532;DHT22;11432;46.924;7.114;2023-11-21T10:41:37;9.80;99.90
22532;DHT22;11432;46.924;7.114;2023-11-21T10:44:03;9.70;99.90
22532;DHT22;11432;46.924;7.114;2023-11-21T10:46:31;9.60;99.90
22532;DHT22;11432;46.924;7.114;2023-11-21T10:48:57;9.60;99.90
22532;DHT22;11432;46.924;7.114;2023-11-21T10:51:23;9.60;1.00
22532;DHT22;11432;46.924;7.114;2023-11-21T10:53:51;9.50;99.90
22532;DHT22;11432;46.924;7.114;2023-11-21T10:56:18;9.50;99.90
22532;DHT22;11432;46.924;7.114;2023-11-21T10:58:45;9.60;99.90
22532;DHT22;11432;46.924;7.114;2023-11-21T11:01:11;9.70;99.90
22532;DHT22;11432;46.924;7.114;2023-11-21T11:03:39;9.70;99.90
22532;DHT22;11432;46.924;7.114;2023-11-21T11:06:07;9.80;99.90
22532;DHT22;11432;46.924;7.114;2023-11-21T11:08:37;9.90;99.90
22532;DHT22;11432;46.924;7.114;2023-11-21T11:11:06;9.90;99.90
22532;DHT22;11432;46.924;7.114;2023-11-21T11:13:32;10.10;99.90
22532;DHT22;11432;46.924;7.114;2023-11-21T11:15:59;10.20;99.90
22532;DHT22;11432;46.924;7.114;2023-11-21T11:18:30;10.40;99.90
22532;DHT22;11432;46.924;7.114;2023-11-21T11:23:49;11.00;99.90
22532;DHT22;11432;46.924;7.114;2023-11-21T11:32:03;14.70;1.00
22532;DHT22;11432;46.924;7.114;2023-11-21T11:34:46;15.50;1.00
22532;DHT22;11432;46.924;7.114;2023-11-21T11:37:13;16.30;1.00
22532;DHT22;11432;46.924;7.114;2023-11-21T11:39:42;16.60;1.00
22532;DHT22;11432;46.924;7.114;2023-11-21T11:42:15;17.50;1.00
22532;DHT22;11432;46.924;7.114;2023-11-21T11:47:35;16.60;3.60
22532;DHT22;11432;46.924;7.114;2023-11-21T11:50:06;16.90;88.00
22532;DHT22;11432;46.924;7.114;2023-11-21T11:52:37;17.20;99.90
22532;DHT22;11432;46.924;7.114;2023-11-21T11:55:08;16.10;99.90
22532;DHT22;11432;46.924;7.114;2023-11-21T11:57:35;15.40;99.90
22532;DHT22;11432;46.924;7.114;2023-11-21T12:00:11;15.90;40.80
22532;DHT22;11432;46.924;7.114;2023-11-21T12:02:41;16.50;99.90
22532;DHT22;11432;46.924;7.114;2023-11-21T12:05:15;16.00;90.00
22532;DHT22;11432;46.924;7.114;2023-11-21T12:08:03;14.30;1.00
22532;DHT22;11432;46.924;7.114;2023-11-21T12:10:29;13.70;1.00
22532;DHT22;11432;46.924;7.114;2023-11-21T12:12:57;12.80;1.00
22532;DHT22;11432;46.924;7.114;2023-11-21T12:15:23;12.30;1.00
22532;DHT22;11432;46.924;7.114;2023-11-21T12:17:51;11.70;1.00
22532;DHT22;11432;46.924;7.114;2023-11-21T12:20:21;11.40;1.00
22532;DHT22;11432;46.924;7.114;2023-11-21T12:22:54;11.20;99.90
22532;DHT22;11432;46.924;7.114;2023-11-21T12:27:48;11.00;1.00
22532;DHT22;11432;46.924;7.114;2023-11-21T12:30:16;11.10;99.90
22532;DHT22;11432;46.924;7.114;2023-11-21T12:32:44;11.00;99.90
22532;DHT22;11432;46.924;7.114;2023-11-21T12:35:12;11.00;99.90
22532;DHT22;11432;46.924;7.114;2023-11-21T12:37:38;11.00;99.90
22532;DHT22;11432;46.924;7.114;2023-11-21T12:40:08;11.00;81.60
22532;DHT22;11432;46.924;7.114;2023-11-21T12:42:37;11.00;99.90
22532;DHT22;11432;46.924;7.114;2023-11-21T12:47:41;11.10;1.00
22532;DHT22;11432;46.924;7.114;2023-11-21T12:50:07;11.20;1.00
22532;DHT22;11432;46.924;7.114;2023-11-21T12:52:42;11.30;99.90
22532;DHT22;11432;46.924;7.114;2023-11-21T12:55:13;11.50;1.00
22532;DHT22;11432;46.924;7.114;2023-11-21T12:57:42;11.80;99.90
22532;DHT22;11432;46.924;7.114;2023-11-21T13:00:09;11.90;39.30
22532;DHT22;11432;46.924;7.114;2023-11-21T13:02:40;12.00;99.90
22532;DHT22;11432;46.924;7.114;2023-11-21T13:05:08;12.20;97.20
22532;DHT22;11432;46.924;7.114;2023-11-21T13:07:44;11.90;99.90
22532;DHT22;11432;46.924;7.114;2023-11-21T13:10:13;11.70;1.00
22532;DHT22;11432;46.924;7.114;2023-11-21T13:12:45;11.60;99.90
22532;DHT22;11432;46.924;7.114;2023-11-21T13:15:14;11.50;99.90
22532;DHT22;11432;46.924;7.114;2023-11-21T13:17:46;11.40;1.00
22532;DHT22;11432;46.924;7.114;2023-11-21T13:20:12;12.00;99.90
22532;DHT22;11432;46.924;7.114;2023-11-21T13:22:55;12.50;1.00
22532;DHT22;11432;46.924;7.114;2023-11-21T13:25:25;11.30;1.00
22532;DHT22;11432;46.924;7.114;2023-11-21T13:27:54;10.60;1.00
22532;DHT22;11432;46.924;7.114;2023-11-21T13:30:19;10.10;1.00
22532;DHT22;11432;46.924;7.114;2023-11-21T13:32:51;9.90;99.90
22532;DHT22;11432;46.924;7.114;2023-11-21T13:35:20;9.60;99.90
22532;DHT22;11432;46.924;7.114;2023-11-21T13:37:48;9.40;1.00
22532;DHT22;11432;46.924;7.114;2023-11-21T13:40:15;9.50;1.00
22532;DHT22;11432;46.924;7.114;2023-11-21T13:42:45;9.50;1.00
22532;DHT22;11432;46.924;7.114;2023-11-21T13:45:11;9.40;1.00
22532;DHT22;11432;46.924;7.114;2023-11-21T13:47:38;9.40;99.90
22532;DHT22;11432;46.924;7.114;2023-11-21T13:50:05;9.40;99.90
22532;DHT22;11432;46.924;7.114;2023-11-21T13:52:39;9.30;1.00
22532;DHT22;11432;46.924;7.114;2023-11-21T13:55:05;9.30;91.70
22532;DHT22;11432;46.924;7.114;2023-11-21T13:57:37;9.30;7.40
22532;DHT22;11432;46.924;7.114;2023-11-21T14:00:04;9.30;25.50
22532;DHT22;11432;46.924;7.114;2023-11-21T14:02:36;9.30;99.90
22532;DHT22;11432;46.924;7.114;2023-11-21T14:05:07;9.50;1.00
22532;DHT22;11432;46.924;7.114;2023-11-21T14:07:35;9.40;66.70
22532;DHT22;11432;46.924;7.114;2023-11-21T14:10:05;9.40;99.90
22532;DHT22;11432;46.924;7.114;2023-11-21T14:12:33;9.40;99.90
22532;DHT22;11432;46.924;7.114;2023-11-21T14:15:01;9.50;99.90
22532;DHT22;11432;46.924;7.114;2023-11-21T14:17:30;9.50;1.00
22532;DHT22;11432;46.924;7.114;2023-11-21T14:19:56;9.60;1.00
22532;DHT22;11432;46.924;7.114;2023-11-21T14:22:21;9.70;9.90
22532;DHT22;11432;46.924;7.114;2023-11-21T14:24:47;9.70;99.90
22532;DHT22;11432;46.924;7.114;2023-11-21T14:27:15;9.70;4.40
22532;DHT22;11432;46.924;7.114;2023-11-21T14:29:41;9.70;1.00
22532;DHT22;11432;46.924;7.114;2023-11-21T14:32:09;9.70;1.00
22532;DHT22;11432;46.924;7.114;2023-11-21T14:34:35;9.60;1.00
22532;DHT22;11432;46.924;7.114;2023-11-21T14:37:02;9.60;1.00
22532;DHT22;11432;46.924;7.114;2023-11-21T14:39:30;9.60;1.00
22532;DHT22;11432;46.924;7.114;2023-11-21T14:41:57;9.60;1.00
22532;DHT22;11432;46.924;7.114;2023-11-21T14:44:23;9.50;1.00
22532;DHT22;11432;46.924;7.114;2023-11-21T14:46:53;9.50;1.00
22532;DHT22;11432;46.924;7.114;2023-11-21T14:49:20;9.50;1.00
22532;DHT22;11432;46.924;7.114;2023-11-21T14:51:48;9.60;8.00
22532;DHT22;11432;46.924;7.114;2023-11-21T14:54:29;9.50;1.00
22532;DHT22;11432;46.924;7.114;2023-11-21T14:57:12;9.40;1.00
22532;DHT22;11432;46.924;7.114;2023-11-21T14:59:44;9.40;1.00
22532;DHT22;11432;46.924;7.114;2023-11-21T15:02:17;9.40;28.60
22532;DHT22;11432;46.924;7.114;2023-11-21T15:04:47;9.40;99.90
22532;DHT22;11432;46.924;7.114;2023-11-21T15:07:13;9.40;99.90
22532;DHT22;11432;46.924;7.114;2023-11-21T15:09:39;9.40;99.90
22532;DHT22;11432;46.924;7.114;2023-11-21T15:12:08;9.30;99.90
22532;DHT22;11432;46.924;7.114;2023-11-21T15:14:44;9.40;99.90
22532;DHT22;11432;46.924;7.114;2023-11-21T15:17:15;9.40;99.90
22532;DHT22;11432;46.924;7.114;2023-11-21T15:19:51;9.40;1.00
22532;DHT22;11432;46.924;7.114;2023-11-21T15:22:16;9.40;1.00
22532;DHT22;11432;46.924;7.114;2023-11-21T15:24:43;9.40;99.90
22532;DHT22;11432;46.924;7.114;2023-11-21T15:27:12;9.40;1.00
22532;DHT22;11432;46.924;7.114;2023-11-21T15:29:40;9.40;89.30
22532;DHT22;11432;46.924;7.114;2023-11-21T15:32:07;9.30;99.90
22532;DHT22;11432;46.924;7.114;2023-11-21T15:34:34;9.30;44.70
22532;DHT22;11432;46.924;7.114;2023-11-21T15:36:59;9.20;1.00
22532;DHT22;11432;46.924;7.114;2023-11-21T15:39:25;9.20;99.90
22532;DHT22;11432;46.924;7.114;2023-11-21T15:41:54;9.20;99.90
22532;DHT22;11432;46.924;7.114;2023-11-21T15:44:20;9.20;1.00
22532;DHT22;11432;46.924;7.114;2023-11-21T15:46:46;9.20;1.00
22532;DHT22;11432;46.924;7.114;2023-11-21T15:49:13;9.20;45.50
22532;DHT22;11432;46.924;7.114;2023-11-21T15:51:42;9.20;1.00
22532;DHT22;11432;46.924;7.114;2023-11-21T15:54:09;9.20;1.00
22532;DHT22;11432;46.924;7.114;2023-11-21T15:56:35;9.10;1.00
22532;DHT22;11432;46.924;7.114;2023-11-21T15:59:01;9.10;1.00
22532;DHT22;11432;46.924;7.114;2023-11-21T16:01:27;9.00;99.90
22532;DHT22;11432;46.924;7.114;2023-11-21T16:03:52;9.00;99.90
22532;DHT22;11432;46.924;7.114;2023-11-21T16:08:45;8.90;99.90